sensor_id;sensor_type;location;lat;lon;timestamp;pressure;altitude;pressure_sealevel;temperature;humidity
19096;BME280;9680;52.520;13.332;2022-11-15T00:00:33;101260.97;;;6.31;92.94
19096;BME280;9680;52.520;13.332;2022-11-15T00:03:20;101258.38;;;6.29;92.83
19096;BME280;9680;52.520;13.332;2022-11-15T00:06:04;101249.78;;;6.30;92.93
19096;BME280;9680;52.520;13.332;2022-11-15T00:08:48;101246.31;;;6.30;92.97
19096;BME280;9680;52.520;13.332;2022-11-15T00:11:33;101243.72;;;6.30;92.83
19096;BME280;9680;52.520;13.332;2022-11-15T00:14:17;101245.44;;;6.31;92.96
19096;BME280;9680;52.520;13.332;2022-11-15T00:17:01;101246.31;;;6.28;92.79
19096;BME280;9680;52.520;13.332;2022-11-15T00:19:45;101231.66;;;6.29;92.80
19096;BME280;9680;52.520;13.332;2022-11-15T00:22:33;101224.78;;;6.28;92.87
19096;BME280;9680;52.520;13.332;2022-11-15T00:25:17;101235.13;;;6.28;92.96
19096;BME280;9680;52.520;13.332;2022-11-15T00:28:01;101231.69;;;6.25;92.78
19096;BME280;9680;52.520;13.332;2022-11-15T00:30:45;101214.47;;;6.24;92.89
19096;BME280;9680;52.520;13.332;2022-11-15T00:33:30;101219.63;;;6.24;92.96
19096;BME280;9680;52.520;13.332;2022-11-15T00:36:14;101216.19;;;6.24;92.99
19096;BME280;9680;52.520;13.332;2022-11-15T00:38:59;101210.16;;;6.22;92.70
19096;BME280;9680;52.520;13.332;2022-11-15T00:41:43;101220.50;;;6.22;93.03
19096;BME280;9680;52.520;13.332;2022-11-15T00:44:27;101207.63;;;6.19;93.12
19096;BME280;9680;52.520;13.332;2022-11-15T00:47:11;101215.38;;;6.19;93.02
19096;BME280;9680;52.520;13.332;2022-11-15T00:49:55;101211.97;;;6.17;92.93
19096;BME280;9680;52.520;13.332;2022-11-15T00:52:39;101202.50;;;6.14;93.03
19096;BME280;9680;52.520;13.332;2022-11-15T00:55:23;101204.22;;;6.15;93.17
19096;BME280;9680;52.520;13.332;2022-11-15T00:58:07;101213.69;;;6.15;93.29
19096;BME280;9680;52.520;13.332;2022-11-15T01:00:51;101207.66;;;6.16;93.25
19096;BME280;9680;52.520;13.332;2022-11-15T01:03:36;101211.13;;;6.15;93.16
19096;BME280;9680;52.520;13.332;2022-11-15T01:06:21;101202.50;;;6.14;93.04
19096;BME280;9680;52.520;13.332;2022-11-15T01:09:05;101198.19;;;6.15;92.99
19096;BME280;9680;52.520;13.332;2022-11-15T01:11:49;101193.03;;;6.13;93.01
19096;BME280;9680;52.520;13.332;2022-11-15T01:14:33;101199.06;;;6.14;92.98
19096;BME280;9680;52.520;13.332;2022-11-15T01:17:17;101185.28;;;6.11;93.13
19096;BME280;9680;52.520;13.332;2022-11-15T01:20:01;101193.03;;;6.11;93.20
19096;BME280;9680;52.520;13.332;2022-11-15T01:22:45;101195.66;;;6.10;93.16
19096;BME280;9680;52.520;13.332;2022-11-15T01:25:29;101192.22;;;6.09;93.17
19096;BME280;9680;52.520;13.332;2022-11-15T01:28:13;101190.50;;;6.08;93.08
19096;BME280;9680;52.520;13.332;2022-11-15T01:30:58;101178.47;;;6.06;93.10
19096;BME280;9680;52.520;13.332;2022-11-15T01:33:43;101169.00;;;6.05;92.92
19096;BME280;9680;52.520;13.332;2022-11-15T01:36:27;101165.53;;;6.04;93.18
19096;BME280;9680;52.520;13.332;2022-11-15T01:39:11;101169.00;;;6.03;93.06
19096;BME280;9680;52.520;13.332;2022-11-15T01:41:55;101168.16;;;6.03;93.28
19096;BME280;9680;52.520;13.332;2022-11-15T01:44:41;101162.13;;;6.02;93.36
19096;BME280;9680;52.520;13.332;2022-11-15T01:47:32;101153.50;;;6.00;93.14
19096;BME280;9680;52.520;13.332;2022-11-15T01:50:25;101150.06;;;6.00;93.04
19096;BME280;9680;52.520;13.332;2022-11-15T01:53:11;101141.44;;;5.99;93.01
19096;BME280;9680;52.520;13.332;2022-11-15T01:55:55;101138.88;;;5.97;93.05
19096;BME280;9680;52.520;13.332;2022-11-15T01:58:41;101139.75;;;5.96;93.10
19096;BME280;9680;52.520;13.332;2022-11-15T02:01:26;101131.13;;;5.96;93.08
19096;BME280;9680;52.520;13.332;2022-11-15T02:04:21;101130.31;;;5.94;93.25
19096;BME280;9680;52.520;13.332;2022-11-15T02:07:10;101126.00;;;5.91;93.07
19096;BME280;9680;52.520;13.332;2022-11-15T02:09:54;101128.59;;;5.91;93.34
19096;BME280;9680;52.520;13.332;2022-11-15T02:12:39;101125.16;;;5.91;93.15
19096;BME280;9680;52.520;13.332;2022-11-15T02:15:28;101130.34;;;5.89;93.08
19096;BME280;9680;52.520;13.332;2022-11-15T02:18:28;101126.91;;;5.89;93.42
19096;BME280;9680;52.520;13.332;2022-11-15T02:27:21;101126.88;;;5.90;93.17
19096;BME280;9680;52.520;13.332;2022-11-15T02:30:37;101128.63;;;5.88;93.40
19096;BME280;9680;52.520;13.332;2022-11-15T02:33:39;101128.63;;;5.88;93.22
19096;BME280;9680;52.520;13.332;2022-11-15T02:39:23;101127.78;;;5.88;93.15
19096;BME280;9680;52.520;13.332;2022-11-15T02:42:34;101127.81;;;5.85;93.34
19096;BME280;9680;52.520;13.332;2022-11-15T02:45:48;101120.94;;;5.83;93.36
19096;BME280;9680;52.520;13.332;2022-11-15T02:48:35;101110.59;;;5.83;92.94
19096;BME280;9680;52.520;13.332;2022-11-15T02:51:20;101106.31;;;5.82;93.26
19096;BME280;9680;52.520;13.332;2022-11-15T02:54:04;101108.91;;;5.82;93.38
19096;BME280;9680;52.520;13.332;2022-11-15T02:56:49;101108.94;;;5.79;93.31
19096;BME280;9680;52.520;13.332;2022-11-15T02:59:38;101103.72;;;5.81;93.38
19096;BME280;9680;52.520;13.332;2022-11-15T03:08:43;101110.66;;;5.79;93.24
19096;BME280;9680;52.520;13.332;2022-11-15T03:11:38;101105.50;;;5.77;93.50
19096;BME280;9680;52.520;13.332;2022-11-15T03:17:27;101100.34;;;5.77;93.51
19096;BME280;9680;52.520;13.332;2022-11-15T03:20:15;101108.94;;;5.78;93.61
19096;BME280;9680;52.520;13.332;2022-11-15T03:23:04;101098.59;;;5.78;93.45
19096;BME280;9680;52.520;13.332;2022-11-15T03:25:50;101105.50;;;5.77;93.58
19096;BME280;9680;52.520;13.332;2022-11-15T03:28:43;101106.34;;;5.78;93.44
19096;BME280;9680;52.520;13.332;2022-11-15T03:31:33;101108.09;;;5.77;93.45
19096;BME280;9680;52.520;13.332;2022-11-15T03:34:37;101099.50;;;5.75;93.56
19096;BME280;9680;52.520;13.332;2022-11-15T03:37:26;101097.75;;;5.76;93.66
19096;BME280;9680;52.520;13.332;2022-11-15T03:40:13;101100.38;;;5.74;93.42
19096;BME280;9680;52.520;13.332;2022-11-15T03:43:36;101096.91;;;5.75;93.66
19096;BME280;9680;52.520;13.332;2022-11-15T03:46:57;101096.91;;;5.75;93.50
19096;BME280;9680;52.520;13.332;2022-11-15T03:49:46;101091.75;;;5.75;93.47
19096;BME280;9680;52.520;13.332;2022-11-15T03:52:34;101101.22;;;5.76;93.29
19096;BME280;9680;52.520;13.332;2022-11-15T03:55:20;101099.50;;;5.74;93.41
19096;BME280;9680;52.520;13.332;2022-11-15T03:58:04;101091.75;;;5.74;93.52
19096;BME280;9680;52.520;13.332;2022-11-15T04:00:48;101086.56;;;5.75;93.62
19096;BME280;9680;52.520;13.332;2022-11-15T04:03:32;101082.25;;;5.76;93.47
19096;BME280;9680;52.520;13.332;2022-11-15T04:06:16;101081.41;;;5.75;93.50
19096;BME280;9680;52.520;13.332;2022-11-15T04:09:00;101086.56;;;5.75;93.57
19096;BME280;9680;52.520;13.332;2022-11-15T04:11:44;101084.00;;;5.75;93.54
19096;BME280;9680;52.520;13.332;2022-11-15T04:14:27;101083.97;;;5.77;93.39
19096;BME280;9680;52.520;13.332;2022-11-15T04:17:11;101080.50;;;5.78;93.56
19096;BME280;9680;52.520;13.332;2022-11-15T04:19:55;101079.66;;;5.77;93.48
19096;BME280;9680;52.520;13.332;2022-11-15T04:22:59;101079.66;;;5.77;93.50
19096;BME280;9680;52.520;13.332;2022-11-15T04:26:05;101079.66;;;5.77;93.54
19096;BME280;9680;52.520;13.332;2022-11-15T04:28:51;101081.38;;;5.77;93.42
19096;BME280;9680;52.520;13.332;2022-11-15T04:31:54;101077.06;;;5.77;93.47
19096;BME280;9680;52.520;13.332;2022-11-15T04:34:37;101077.91;;;5.79;93.25
19096;BME280;9680;52.520;13.332;2022-11-15T04:37:22;101071.88;;;5.79;93.67
19096;BME280;9680;52.520;13.332;2022-11-15T04:40:06;101070.16;;;5.79;93.60
19096;BME280;9680;52.520;13.332;2022-11-15T04:42:51;101069.25;;;5.82;93.85
19096;BME280;9680;52.520;13.332;2022-11-15T04:45:38;101066.66;;;5.82;93.75
19096;BME280;9680;52.520;13.332;2022-11-15T04:48:22;101068.34;;;5.85;94.05
19096;BME280;9680;52.520;13.332;2022-11-15T04:51:06;101057.13;;;5.86;93.49
19096;BME280;9680;52.520;13.332;2022-11-15T04:53:50;101058.84;;;5.87;93.34
19096;BME280;9680;52.520;13.332;2022-11-15T04:56:34;101056.25;;;5.87;93.60
19096;BME280;9680;52.520;13.332;2022-11-15T04:59:18;101064.84;;;5.87;93.38
19096;BME280;9680;52.520;13.332;2022-11-15T05:02:02;101057.13;;;5.86;93.09
19096;BME280;9680;52.520;13.332;2022-11-15T05:04:47;101060.56;;;5.86;93.18
19096;BME280;9680;52.520;13.332;2022-11-15T05:07:30;101066.63;;;5.85;93.42
19096;BME280;9680;52.520;13.332;2022-11-15T05:10:15;101065.78;;;5.85;93.11
19096;BME280;9680;52.520;13.332;2022-11-15T05:12:59;101070.06;;;5.84;93.15
19096;BME280;9680;52.520;13.332;2022-11-15T05:15:43;101071.78;;;5.85;93.22
19096;BME280;9680;52.520;13.332;2022-11-15T05:18:27;101070.06;;;5.86;93.17
19096;BME280;9680;52.520;13.332;2022-11-15T05:21:13;101067.47;;;5.86;93.35
19096;BME280;9680;52.520;13.332;2022-11-15T05:23:58;101069.19;;;5.87;93.03
19096;BME280;9680;52.520;13.332;2022-11-15T05:26:43;101064.03;;;5.87;93.19
19096;BME280;9680;52.520;13.332;2022-11-15T05:29:27;101068.31;;;5.86;93.28
19096;BME280;9680;52.520;13.332;2022-11-15T05:32:12;101067.47;;;5.86;93.30
19096;BME280;9680;52.520;13.332;2022-11-15T05:34:56;101062.31;;;5.86;93.48
19096;BME280;9680;52.520;13.332;2022-11-15T05:37:40;101066.63;;;5.85;93.15
19096;BME280;9680;52.520;13.332;2022-11-15T05:40:25;101064.84;;;5.87;93.28
19096;BME280;9680;52.520;13.332;2022-11-15T05:43:10;101058.84;;;5.87;93.25
19096;BME280;9680;52.520;13.332;2022-11-15T05:45:55;101060.56;;;5.88;93.27
19096;BME280;9680;52.520;13.332;2022-11-15T05:48:43;101057.97;;;5.88;93.24
19096;BME280;9680;52.520;13.332;2022-11-15T05:51:29;101065.69;;;5.91;93.30
19096;BME280;9680;52.520;13.332;2022-11-15T05:54:14;101061.41;;;5.90;93.29
19096;BME280;9680;52.520;13.332;2022-11-15T05:57:00;101063.97;;;5.90;93.09
19096;BME280;9680;52.520;13.332;2022-11-15T05:59:44;101064.84;;;5.89;93.08
19096;BME280;9680;52.520;13.332;2022-11-15T06:02:28;101072.63;;;5.89;93.04
19096;BME280;9680;52.520;13.332;2022-11-15T06:05:12;101070.00;;;5.90;92.82
19096;BME280;9680;52.520;13.332;2022-11-15T06:07:57;101066.56;;;5.88;93.06
19096;BME280;9680;52.520;13.332;2022-11-15T06:10:42;101065.72;;;5.88;92.92
19096;BME280;9680;52.520;13.332;2022-11-15T06:13:26;101070.91;;;5.88;92.60
19096;BME280;9680;52.520;13.332;2022-11-15T06:16:10;101078.69;;;5.85;92.68
19096;BME280;9680;52.520;13.332;2022-11-15T06:18:54;101069.19;;;5.85;92.94
19096;BME280;9680;52.520;13.332;2022-11-15T06:21:38;101066.66;;;5.83;92.91
19096;BME280;9680;52.520;13.332;2022-11-15T06:24:22;101080.44;;;5.82;92.61
19096;BME280;9680;52.520;13.332;2022-11-15T06:27:06;101077.03;;;5.80;92.80
19096;BME280;9680;52.520;13.332;2022-11-15T06:29:50;101083.06;;;5.79;92.52
19096;BME280;9680;52.520;13.332;2022-11-15T06:32:34;101079.63;;;5.79;93.06
19096;BME280;9680;52.520;13.332;2022-11-15T06:35:18;101075.31;;;5.79;92.83
19096;BME280;9680;52.520;13.332;2022-11-15T06:38:04;101078.75;;;5.80;92.87
19096;BME280;9680;52.520;13.332;2022-11-15T06:40:49;101072.69;;;5.81;92.65
19096;BME280;9680;52.520;13.332;2022-11-15T06:43:34;101075.28;;;5.81;92.68
19096;BME280;9680;52.520;13.332;2022-11-15T06:49:58;101091.59;;;5.88;92.66
19096;BME280;9680;52.520;13.332;2022-11-15T06:52:42;101094.13;;;5.89;92.70
19096;BME280;9680;52.520;13.332;2022-11-15T06:55:27;101099.28;;;5.92;92.75
19096;BME280;9680;52.520;13.332;2022-11-15T06:58:10;101089.81;;;5.93;92.40
19096;BME280;9680;52.520;13.332;2022-11-15T07:00:59;101088.03;;;5.96;92.76
19096;BME280;9680;52.520;13.332;2022-11-15T07:03:43;101086.28;;;6.02;92.73
19096;BME280;9680;52.520;13.332;2022-11-15T07:06:27;101097.41;;;6.05;92.47
19096;BME280;9680;52.520;13.332;2022-11-15T07:09:11;101097.41;;;6.07;92.30
19096;BME280;9680;52.520;13.332;2022-11-15T07:11:55;101103.38;;;6.10;92.35
19096;BME280;9680;52.520;13.332;2022-11-15T07:14:40;101101.63;;;6.12;92.39
19096;BME280;9680;52.520;13.332;2022-11-15T07:17:23;101105.88;;;6.17;92.25
19096;BME280;9680;52.520;13.332;2022-11-15T07:20:08;101102.41;;;6.19;92.11
19096;BME280;9680;52.520;13.332;2022-11-15T07:23:00;101106.69;;;6.22;92.18
19096;BME280;9680;52.520;13.332;2022-11-15T07:25:44;101113.53;;;6.26;92.06
19096;BME280;9680;52.520;13.332;2022-11-15T07:28:28;101113.47;;;6.32;91.89
19096;BME280;9680;52.520;13.332;2022-11-15T07:31:12;101108.19;;;6.38;91.95
19096;BME280;9680;52.520;13.332;2022-11-15T07:33:56;101103.81;;;6.44;91.51
19096;BME280;9680;52.520;13.332;2022-11-15T07:36:40;101102.81;;;6.51;91.50
19096;BME280;9680;52.520;13.332;2022-11-15T07:39:24;101095.78;;;6.59;91.31
19096;BME280;9680;52.520;13.332;2022-11-15T07:42:08;101106.09;;;6.64;91.24
19096;BME280;9680;52.520;13.332;2022-11-15T07:45:12;101109.41;;;6.72;91.10
19096;BME280;9680;52.520;13.332;2022-11-15T07:47:56;101101.50;;;6.80;90.83
19096;BME280;9680;52.520;13.332;2022-11-15T07:50:41;101096.22;;;6.86;90.63
19096;BME280;9680;52.520;13.332;2022-11-15T07:53:31;101098.69;;;6.92;90.56
19096;BME280;9680;52.520;13.332;2022-11-15T07:56:16;101088.25;;;6.98;90.63
19096;BME280;9680;52.520;13.332;2022-11-15T07:59:04;101086.34;;;7.08;90.10
19096;BME280;9680;52.520;13.332;2022-11-15T08:01:48;101095.72;;;7.16;89.75
19096;BME280;9680;52.520;13.332;2022-11-15T08:04:32;101089.53;;;7.24;89.61
19096;BME280;9680;52.520;13.332;2022-11-15T08:07:16;101088.53;;;7.32;89.37
19096;BME280;9680;52.520;13.332;2022-11-15T08:10:00;101088.34;;;7.41;89.23
19096;BME280;9680;52.520;13.332;2022-11-15T08:12:44;101089.03;;;7.49;89.21
19096;BME280;9680;52.520;13.332;2022-11-15T08:15:32;101082.00;;;7.56;88.90
19096;BME280;9680;52.520;13.332;2022-11-15T08:18:16;101082.78;;;7.61;88.15
19096;BME280;9680;52.520;13.332;2022-11-15T08:21:01;101084.34;;;7.68;88.25
19096;BME280;9680;52.520;13.332;2022-11-15T08:23:45;101084.16;;;7.78;87.88
19096;BME280;9680;52.520;13.332;2022-11-15T08:26:29;101079.66;;;7.87;87.47
19096;BME280;9680;52.520;13.332;2022-11-15T08:29:13;101080.34;;;7.94;87.10
19096;BME280;9680;52.520;13.332;2022-11-15T08:31:57;101076.78;;;8.00;86.72
19096;BME280;9680;52.520;13.332;2022-11-15T08:34:41;101073.16;;;8.09;86.73
19096;BME280;9680;52.520;13.332;2022-11-15T08:37:25;101082.44;;;8.18;86.63
19096;BME280;9680;52.520;13.332;2022-11-15T08:40:09;101086.53;;;8.28;86.57
19096;BME280;9680;52.520;13.332;2022-11-15T08:42:54;101081.19;;;8.36;85.77
19096;BME280;9680;52.520;13.332;2022-11-15T08:45:38;101081.84;;;8.44;85.55
19096;BME280;9680;52.520;13.332;2022-11-15T08:48:22;101087.81;;;8.49;85.21
19096;BME280;9680;52.520;13.332;2022-11-15T08:51:06;101079.84;;;8.57;85.00
19096;BME280;9680;52.520;13.332;2022-11-15T08:53:50;101082.28;;;8.65;84.63
19096;BME280;9680;52.520;13.332;2022-11-15T08:56:34;101081.25;;;8.70;84.11
19096;BME280;9680;52.520;13.332;2022-11-15T08:59:18;101083.69;;;8.78;84.30
19096;BME280;9680;52.520;13.332;2022-11-15T09:02:03;101083.47;;;8.86;83.56
19096;BME280;9680;52.520;13.332;2022-11-15T09:04:48;101086.69;;;8.96;83.29
19096;BME280;9680;52.520;13.332;2022-11-15T09:07:32;101074.34;;;9.04;83.18
19096;BME280;9680;52.520;13.332;2022-11-15T09:10:16;101075.09;;;9.09;82.92
19096;BME280;9680;52.520;13.332;2022-11-15T09:13:00;101069.69;;;9.17;82.56
19096;BME280;9680;52.520;13.332;2022-11-15T09:15:44;101071.31;;;9.21;82.16
19096;BME280;9680;52.520;13.332;2022-11-15T09:18:28;101072.84;;;9.28;82.28
19096;BME280;9680;52.520;13.332;2022-11-15T09:21:13;101077.88;;;9.35;82.10
19096;BME280;9680;52.520;13.332;2022-11-15T09:23:57;101071.63;;;9.42;81.47
19096;BME280;9680;52.520;13.332;2022-11-15T09:26:42;101074.13;;;9.45;81.16
19096;BME280;9680;52.520;13.332;2022-11-15T09:29:27;101076.53;;;9.53;81.11
19096;BME280;9680;52.520;13.332;2022-11-15T09:32:11;101076.38;;;9.57;80.72
19096;BME280;9680;52.520;13.332;2022-11-15T09:34:55;101081.38;;;9.65;80.63
19096;BME280;9680;52.520;13.332;2022-11-15T09:37:39;101083.75;;;9.73;80.48
19096;BME280;9680;52.520;13.332;2022-11-15T09:40:23;101080.09;;;9.80;80.25
19096;BME280;9680;52.520;13.332;2022-11-15T09:49:44;101073.34;;;10.03;79.13
19096;BME280;9680;52.520;13.332;2022-11-15T09:52:18;101078.25;;;10.12;79.13
19096;BME280;9680;52.520;13.332;2022-11-15T09:54:47;101062.50;;;10.17;78.60
19096;BME280;9680;52.520;13.332;2022-11-15T10:00:04;101059.56;;;10.28;78.53
19096;BME280;9680;52.520;13.332;2022-11-15T10:05:28;101049.53;;;10.44;77.95
19096;BME280;9680;52.520;13.332;2022-11-15T10:10:40;101043.81;;;10.59;77.33
19096;BME280;9680;52.520;13.332;2022-11-15T10:13:18;101040.97;;;10.67;77.31
19096;BME280;9680;52.520;13.332;2022-11-15T10:15:46;101043.31;;;10.75;77.16
19096;BME280;9680;52.520;13.332;2022-11-15T10:18:23;101041.34;;;10.82;76.58
19096;BME280;9680;52.520;13.332;2022-11-15T10:21:08;101029.69;;;10.92;76.33
19096;BME280;9680;52.520;13.332;2022-11-15T10:23:38;101030.34;;;10.99;76.03
19096;BME280;9680;52.520;13.332;2022-11-15T10:26:07;101032.72;;;11.05;75.84
19096;BME280;9680;52.520;13.332;2022-11-15T10:28:33;101021.28;;;11.09;75.69
19096;BME280;9680;52.520;13.332;2022-11-15T10:31:00;101009.84;;;11.13;75.52
19096;BME280;9680;52.520;13.332;2022-11-15T10:33:34;101003.50;;;11.20;75.21
19096;BME280;9680;52.520;13.332;2022-11-15T10:36:22;101000.84;;;11.22;75.22
19096;BME280;9680;52.520;13.332;2022-11-15T10:41:21;100995.16;;;11.34;74.43
19096;BME280;9680;52.520;13.332;2022-11-15T10:46:32;100989.78;;;11.39;74.33
19096;BME280;9680;52.520;13.332;2022-11-15T10:51:49;100976.31;;;11.50;73.90
19096;BME280;9680;52.520;13.332;2022-11-15T10:54:28;100977.88;;;11.56;73.69
19096;BME280;9680;52.520;13.332;2022-11-15T10:56:57;100982.91;;;11.60;73.81
19096;BME280;9680;52.520;13.332;2022-11-15T10:59:28;100969.75;;;11.63;73.53
19096;BME280;9680;52.520;13.332;2022-11-15T11:01:54;100967.75;;;11.70;73.51
19096;BME280;9680;52.520;13.332;2022-11-15T11:04:20;100966.66;;;11.76;73.17
19096;BME280;9680;52.520;13.332;2022-11-15T11:09:38;100958.47;;;11.85;72.90
19096;BME280;9680;52.520;13.332;2022-11-15T11:12:06;100960.81;;;11.91;72.72
19096;BME280;9680;52.520;13.332;2022-11-15T11:14:37;100951.97;;;11.95;72.43
19096;BME280;9680;52.520;13.332;2022-11-15T11:19:51;100956.03;;;12.03;72.75
19096;BME280;9680;52.520;13.332;2022-11-15T11:22:32;100947.19;;;12.07;72.13
19096;BME280;9680;52.520;13.332;2022-11-15T11:35:36;100950.06;;;12.21;71.76
19096;BME280;9680;52.520;13.332;2022-11-15T11:38:17;100951.72;;;12.24;71.53
19096;BME280;9680;52.520;13.332;2022-11-15T11:48:56;100933.78;;;12.37;71.62
19096;BME280;9680;52.520;13.332;2022-11-15T11:51:34;100931.94;;;12.39;71.36
19096;BME280;9680;52.520;13.332;2022-11-15T11:56:48;100920.34;;;12.45;71.30
19096;BME280;9680;52.520;13.332;2022-11-15T11:59:25;100923.84;;;12.45;71.22
19096;BME280;9680;52.520;13.332;2022-11-15T12:01:54;100923.75;;;12.47;71.34
19096;BME280;9680;52.520;13.332;2022-11-15T12:07:04;100913.31;;;12.47;70.96
19096;BME280;9680;52.520;13.332;2022-11-15T12:09:39;100908.88;;;12.49;71.07
19096;BME280;9680;52.520;13.332;2022-11-15T12:12:27;100910.50;;;12.51;71.21
19096;BME280;9680;52.520;13.332;2022-11-15T12:17:26;100909.47;;;12.56;70.98
19096;BME280;9680;52.520;13.332;2022-11-15T12:19:56;100905.84;;;12.58;70.73
19096;BME280;9680;52.520;13.332;2022-11-15T12:25:00;100897.81;;;12.63;70.63
19096;BME280;9680;52.520;13.332;2022-11-15T12:28:30;100901.06;;;12.68;70.42
19096;BME280;9680;52.520;13.332;2022-11-15T12:30:56;100894.88;;;12.71;70.38
19096;BME280;9680;52.520;13.332;2022-11-15T12:33:40;100897.63;;;12.67;70.22
19096;BME280;9680;52.520;13.332;2022-11-15T12:36:27;100885.47;;;12.66;70.70
19096;BME280;9680;52.520;13.332;2022-11-15T12:41:26;100895.97;;;12.65;70.33
19096;BME280;9680;52.520;13.332;2022-11-15T12:43:52;100885.53;;;12.65;70.38
19096;BME280;9680;52.520;13.332;2022-11-15T12:48:56;100869.16;;;12.61;70.65
19096;BME280;9680;52.520;13.332;2022-11-15T12:59:52;100859.03;;;12.53;70.95
19096;BME280;9680;52.520;13.332;2022-11-15T13:02:43;100858.16;;;12.53;71.02
19096;BME280;9680;52.520;13.332;2022-11-15T13:10:32;100856.56;;;12.50;71.14
19096;BME280;9680;52.520;13.332;2022-11-15T13:13:02;100852.16;;;12.51;71.45
19096;BME280;9680;52.520;13.332;2022-11-15T13:15:36;100850.53;;;12.48;71.39
19096;BME280;9680;52.520;13.332;2022-11-15T13:18:45;100846.25;;;12.47;71.75
19096;BME280;9680;52.520;13.332;2022-11-15T13:21:23;100850.47;;;12.50;71.75
19096;BME280;9680;52.520;13.332;2022-11-15T13:24:16;100854.00;;;12.49;71.54
19096;BME280;9680;52.520;13.332;2022-11-15T13:26:42;100842.63;;;12.50;71.83
19096;BME280;9680;52.520;13.332;2022-11-15T13:29:18;100841.78;;;12.49;71.71
19096;BME280;9680;52.520;13.332;2022-11-15T13:31:45;100840.09;;;12.48;71.54
19096;BME280;9680;52.520;13.332;2022-11-15T13:34:27;100838.41;;;12.47;71.83
19096;BME280;9680;52.520;13.332;2022-11-15T13:36:54;100832.31;;;12.47;71.85
19096;BME280;9680;52.520;13.332;2022-11-15T13:39:30;100840.09;;;12.48;71.77
19096;BME280;9680;52.520;13.332;2022-11-15T13:41:57;100843.50;;;12.50;72.21
19096;BME280;9680;52.520;13.332;2022-11-15T13:44:25;100846.88;;;12.52;71.98
19096;BME280;9680;52.520;13.332;2022-11-15T13:47:19;100847.66;;;12.55;71.95
19096;BME280;9680;52.520;13.332;2022-11-15T13:49:44;100840.59;;;12.57;71.90
19096;BME280;9680;52.520;13.332;2022-11-15T13:52:13;100840.66;;;12.55;71.68
19096;BME280;9680;52.520;13.332;2022-11-15T13:57:27;100832.81;;;12.55;72.00
19096;BME280;9680;52.520;13.332;2022-11-15T14:00:06;100840.75;;;12.53;72.38
19096;BME280;9680;52.520;13.332;2022-11-15T14:02:38;100841.00;;;12.47;72.11
19096;BME280;9680;52.520;13.332;2022-11-15T14:05:20;100836.06;;;12.41;72.45
19096;BME280;9680;52.520;13.332;2022-11-15T14:07:57;100843.31;;;12.34;72.75
19096;BME280;9680;52.520;13.332;2022-11-15T14:10:32;100842.63;;;12.31;73.01
19096;BME280;9680;52.520;13.332;2022-11-15T14:12:59;100847.88;;;12.29;73.00
19096;BME280;9680;52.520;13.332;2022-11-15T14:17:56;100838.53;;;12.23;73.21
19096;BME280;9680;52.520;13.332;2022-11-15T14:20:36;100842.19;;;12.19;73.15
19096;BME280;9680;52.520;13.332;2022-11-15T14:23:05;100838.03;;;12.15;
19096;BME280;9680;52.520;13.332;2022-11-15T14:25:55;100834.75;;;12.10;73.66
19096;BME280;9680;52.520;13.332;2022-11-15T14:30:53;100822.97;;;12.01;73.76
19096;BME280;9680;52.520;13.332;2022-11-15T14:35:50;100821.50;;;11.94;74.08
19096;BME280;9680;52.520;13.332;2022-11-15T14:38:16;100821.59;;;11.91;74.43
19096;BME280;9680;52.520;13.332;2022-11-15T14:40:42;100821.69;;;11.89;74.47
19096;BME280;9680;52.520;13.332;2022-11-15T14:43:10;100820.91;;;11.87;74.33
19096;BME280;9680;52.520;13.332;2022-11-15T14:45:37;100816.72;;;11.83;74.67
19096;BME280;9680;52.520;13.332;2022-11-15T14:48:03;100807.38;;;11.77;74.43
19096;BME280;9680;52.520;13.332;2022-11-15T14:50:28;100812.84;;;11.71;74.88
19096;BME280;9680;52.520;13.332;2022-11-15T14:52:54;100815.72;;;11.65;74.79
19096;BME280;9680;52.520;13.332;2022-11-15T14:55:33;100817.72;;;11.58;75.29
19096;BME280;9680;52.520;13.332;2022-11-15T14:58:05;100818.84;;;11.53;75.35
19096;BME280;9680;52.520;13.332;2022-11-15T15:00:34;100809.50;;;11.47;75.58
19096;BME280;9680;52.520;13.332;2022-11-15T15:03:00;100805.31;;;11.43;75.84
19096;BME280;9680;52.520;13.332;2022-11-15T15:05:31;100799.50;;;11.36;76.02
19096;BME280;9680;52.520;13.332;2022-11-15T15:07:57;100796.16;;;11.32;76.10
19096;BME280;9680;52.520;13.332;2022-11-15T15:10:24;100803.19;;;11.30;76.55
19096;BME280;9680;52.520;13.332;2022-11-15T15:12:50;100805.09;;;11.27;76.75
19096;BME280;9680;52.520;13.332;2022-11-15T15:15:19;100799.16;;;11.23;76.74
19096;BME280;9680;52.520;13.332;2022-11-15T15:17:46;100802.00;;;11.17;76.83
19096;BME280;9680;52.520;13.332;2022-11-15T15:20:12;100802.13;;;11.14;77.06
19096;BME280;9680;52.520;13.332;2022-11-15T15:22:38;100800.53;;;11.10;77.21
19096;BME280;9680;52.520;13.332;2022-11-15T15:25:19;100803.41;;;11.03;77.60
19096;BME280;9680;52.520;13.332;2022-11-15T15:27:45;100804.44;;;10.99;77.81
19096;BME280;9680;52.520;13.332;2022-11-15T15:30:11;100802.88;;;10.93;78.09
19096;BME280;9680;52.520;13.332;2022-11-15T15:32:36;100799.66;;;10.87;78.42
19096;BME280;9680;52.520;13.332;2022-11-15T15:35:02;100797.25;;;10.82;78.72
19096;BME280;9680;52.520;13.332;2022-11-15T15:37:28;100791.28;;;10.78;78.91
19096;BME280;9680;52.520;13.332;2022-11-15T15:39:56;100788.69;;;10.78;79.24
19096;BME280;9680;52.520;13.332;2022-11-15T15:42:22;100791.38;;;10.77;79.55
19096;BME280;9680;52.520;13.332;2022-11-15T15:44:49;100798.38;;;10.75;79.53
19096;BME280;9680;52.520;13.332;2022-11-15T15:47:19;100796.81;;;10.71;80.12
19096;BME280;9680;52.520;13.332;2022-11-15T15:49:45;100790.84;;;10.67;79.89
19096;BME280;9680;52.520;13.332;2022-11-15T15:52:11;100791.84;;;10.65;80.15
19096;BME280;9680;52.520;13.332;2022-11-15T15:54:37;100787.63;;;10.60;80.27
19096;BME280;9680;52.520;13.332;2022-11-15T15:57:03;100786.81;;;10.58;80.51
19096;BME280;9680;52.520;13.332;2022-11-15T15:59:28;100784.41;;;10.54;80.69